sensor_id;sensor_type;location;lat;lon;timestamp;P1;durP1;ratioP1;P2;durP2;ratioP2
41568;SDS011;27283;52.504;13.358;2023-05-07T00:01:28;26.08;;;14.75;;
41568;SDS011;27283;52.504;13.358;2023-05-07T00:04:03;29.08;;;15.63;;
41568;SDS011;27283;52.504;13.358;2023-05-07T00:06:36;28.58;;;15.93;;
41568;SDS011;27283;52.504;13.358;2023-05-07T00:09:08;31.30;;;16.33;;
41568;SDS011;27283;52.504;13.358;2023-05-07T00:11:41;28.02;;;15.90;;
41568;SDS011;27283;52.504;13.358;2023-05-07T00:14:15;29.75;;;15.27;;
41568;SDS011;27283;52.504;13.358;2023-05-07T00:16:47;28.17;;;14.80;;
41568;SDS011;27283;52.504;13.358;2023-05-07T00:19:24;27.75;;;14.85;;
41568;SDS011;27283;52.504;13.358;2023-05-07T00:21:57;26.02;;;14.43;;
41568;SDS011;27283;52.504;13.358;2023-05-07T00:24:29;24.02;;;15.13;;
41568;SDS011;27283;52.504;13.358;2023-05-07T00:27:02;24.58;;;14.90;;
41568;SDS011;27283;52.504;13.358;2023-05-07T00:29:34;27.23;;;14.40;;
41568;SDS011;27283;52.504;13.358;2023-05-07T00:32:06;24.58;;;14.38;;
41568;SDS011;27283;52.504;13.358;2023-05-07T00:34:42;23.15;;;13.23;;
41568;SDS011;27283;52.504;13.358;2023-05-07T00:37:16;24.92;;;14.05;;
41568;SDS011;27283;52.504;13.358;2023-05-07T00:39:48;20.50;;;13.13;;
41568;SDS011;27283;52.504;13.358;2023-05-07T00:42:22;24.58;;;14.63;;
41568;SDS011;27283;52.504;13.358;2023-05-07T00:44:56;20.15;;;13.43;;
41568;SDS011;27283;52.504;13.358;2023-05-07T00:47:30;26.23;;;13.85;;
41568;SDS011;27283;52.504;13.358;2023-05-07T00:50:06;24.45;;;13.82;;
41568;SDS011;27283;52.504;13.358;2023-05-07T00:52:41;24.27;;;13.52;;
41568;SDS011;27283;52.504;13.358;2023-05-07T00:55:14;23.42;;;13.85;;
41568;SDS011;27283;52.504;13.358;2023-05-07T00:57:46;26.15;;;14.00;;
41568;SDS011;27283;52.504;13.358;2023-05-07T01:00:18;24.58;;;13.98;;
41568;SDS011;27283;52.504;13.358;2023-05-07T01:02:50;23.75;;;14.20;;
41568;SDS011;27283;52.504;13.358;2023-05-07T01:05:25;21.50;;;14.05;;
41568;SDS011;27283;52.504;13.358;2023-05-07T01:07:59;24.45;;;14.32;;
41568;SDS011;27283;52.504;13.358;2023-05-07T01:10:33;23.85;;;14.63;;
41568;SDS011;27283;52.504;13.358;2023-05-07T01:13:05;23.45;;;14.02;;
41568;SDS011;27283;52.504;13.358;2023-05-07T01:15:40;21.40;;;13.63;;
41568;SDS011;27283;52.504;13.358;2023-05-07T01:18:14;24.30;;;14.57;;
41568;SDS011;27283;52.504;13.358;2023-05-07T01:20:49;20.67;;;13.20;;
41568;SDS011;27283;52.504;13.358;2023-05-07T01:23:23;22.48;;;13.48;;
41568;SDS011;27283;52.504;13.358;2023-05-07T01:25:56;23.05;;;12.50;;
41568;SDS011;27283;52.504;13.358;2023-05-07T01:28:28;22.92;;;13.43;;
41568;SDS011;27283;52.504;13.358;2023-05-07T01:31:00;23.63;;;13.30;;
41568;SDS011;27283;52.504;13.358;2023-05-07T01:33:34;20.88;;;13.10;;
41568;SDS011;27283;52.504;13.358;2023-05-07T01:36:09;19.70;;;12.70;;
41568;SDS011;27283;52.504;13.358;2023-05-07T01:38:45;24.13;;;13.40;;
41568;SDS011;27283;52.504;13.358;2023-05-07T01:41:18;23.08;;;13.70;;
41568;SDS011;27283;52.504;13.358;2023-05-07T01:43:50;20.65;;;12.85;;
41568;SDS011;27283;52.504;13.358;2023-05-07T01:46:23;21.90;;;12.68;;
41568;SDS011;27283;52.504;13.358;2023-05-07T01:48:58;19.80;;;11.63;;
41568;SDS011;27283;52.504;13.358;2023-05-07T01:51:30;18.10;;;11.73;;
41568;SDS011;27283;52.504;13.358;2023-05-07T01:54:08;24.13;;;13.32;;
41568;SDS011;27283;52.504;13.358;2023-05-07T01:56:40;22.75;;;12.60;;
41568;SDS011;27283;52.504;13.358;2023-05-07T01:59:17;19.23;;;12.60;;
41568;SDS011;27283;52.504;13.358;2023-05-07T02:01:51;23.60;;;13.30;;
41568;SDS011;27283;52.504;13.358;2023-05-07T02:04:24;23.30;;;13.15;;
41568;SDS011;27283;52.504;13.358;2023-05-07T02:06:56;24.38;;;13.40;;
41568;SDS011;27283;52.504;13.358;2023-05-07T02:09:36;21.45;;;12.57;;
41568;SDS011;27283;52.504;13.358;2023-05-07T02:12:09;22.08;;;12.80;;
41568;SDS011;27283;52.504;13.358;2023-05-07T02:14:41;23.20;;;13.40;;
41568;SDS011;27283;52.504;13.358;2023-05-07T02:17:13;30.55;;;14.52;;
41568;SDS011;27283;52.504;13.358;2023-05-07T02:19:48;22.50;;;13.10;;
41568;SDS011;27283;52.504;13.358;2023-05-07T02:22:20;22.63;;;12.77;;
41568;SDS011;27283;52.504;13.358;2023-05-07T02:24:57;25.98;;;13.70;;
41568;SDS011;27283;52.504;13.358;2023-05-07T02:27:30;23.70;;;14.10;;
41568;SDS011;27283;52.504;13.358;2023-05-07T02:30:03;25.00;;;13.35;;
41568;SDS011;27283;52.504;13.358;2023-05-07T02:32:36;23.45;;;13.95;;
41568;SDS011;27283;52.504;13.358;2023-05-07T02:35:08;25.05;;;13.68;;
41568;SDS011;27283;52.504;13.358;2023-05-07T02:37:40;22.75;;;13.55;;
41568;SDS011;27283;52.504;13.358;2023-05-07T02:40:15;23.67;;;13.85;;
41568;SDS011;27283;52.504;13.358;2023-05-07T02:42:48;23.45;;;14.00;;
41568;SDS011;27283;52.504;13.358;2023-05-07T02:45:20;25.80;;;13.85;;
41568;SDS011;27283;52.504;13.358;2023-05-07T02:47:52;21.20;;;12.88;;
41568;SDS011;27283;52.504;13.358;2023-05-07T02:50:24;24.15;;;13.15;;
41568;SDS011;27283;52.504;13.358;2023-05-07T02:52:57;21.40;;;12.18;;
41568;SDS011;27283;52.504;13.358;2023-05-07T02:55:33;23.70;;;13.30;;
41568;SDS011;27283;52.504;13.358;2023-05-07T02:58:05;26.83;;;13.38;;
41568;SDS011;27283;52.504;13.358;2023-05-07T03:00:40;23.27;;;12.77;;
41568;SDS011;27283;52.504;13.358;2023-05-07T03:03:14;26.15;;;13.75;;
41568;SDS011;27283;52.504;13.358;2023-05-07T03:05:46;23.40;;;13.40;;
41568;SDS011;27283;52.504;13.358;2023-05-07T03:08:18;20.77;;;12.90;;
41568;SDS011;27283;52.504;13.358;2023-05-07T03:10:53;24.10;;;12.93;;
41568;SDS011;27283;52.504;13.358;2023-05-07T03:13:25;23.55;;;12.98;;
41568;SDS011;27283;52.504;13.358;2023-05-07T03:15:57;20.35;;;11.80;;
41568;SDS011;27283;52.504;13.358;2023-05-07T03:18:32;21.52;;;11.63;;
41568;SDS011;27283;52.504;13.358;2023-05-07T03:21:04;21.95;;;11.90;;
41568;SDS011;27283;52.504;13.358;2023-05-07T03:23:37;22.35;;;11.95;;
41568;SDS011;27283;52.504;13.358;2023-05-07T03:26:12;21.02;;;11.77;;
41568;SDS011;27283;52.504;13.358;2023-05-07T03:28:44;19.95;;;11.30;;
41568;SDS011;27283;52.504;13.358;2023-05-07T03:31:17;21.55;;;11.73;;
41568;SDS011;27283;52.504;13.358;2023-05-07T03:33:50;21.40;;;12.40;;
41568;SDS011;27283;52.504;13.358;2023-05-07T03:36:29;18.48;;;11.88;;
41568;SDS011;27283;52.504;13.358;2023-05-07T03:39:03;22.10;;;11.93;;
41568;SDS011;27283;52.504;13.358;2023-05-07T03:41:40;18.20;;;12.00;;
41568;SDS011;27283;52.504;13.358;2023-05-07T03:44:15;18.65;;;11.13;;
41568;SDS011;27283;52.504;13.358;2023-05-07T03:46:47;21.13;;;11.38;;
41568;SDS011;27283;52.504;13.358;2023-05-07T03:49:21;18.08;;;10.85;;
41568;SDS011;27283;52.504;13.358;2023-05-07T03:51:59;20.08;;;11.55;;
41568;SDS011;27283;52.504;13.358;2023-05-07T03:54:36;21.67;;;12.25;;
41568;SDS011;27283;52.504;13.358;2023-05-07T03:57:13;21.13;;;12.32;;
41568;SDS011;27283;52.504;13.358;2023-05-07T03:59:51;16.85;;;11.32;;
41568;SDS011;27283;52.504;13.358;2023-05-07T04:02:24;18.33;;;12.35;;
41568;SDS011;27283;52.504;13.358;2023-05-07T04:05:11;19.42;;;12.38;;
41568;SDS011;27283;52.504;13.358;2023-05-07T04:07:45;20.40;;;12.02;;
41568;SDS011;27283;52.504;13.358;2023-05-07T04:10:17;21.08;;;11.63;;
41568;SDS011;27283;52.504;13.358;2023-05-07T04:12:53;19.65;;;11.68;;
41568;SDS011;27283;52.504;13.358;2023-05-07T04:15:25;21.80;;;11.30;;
41568;SDS011;27283;52.504;13.358;2023-05-07T04:17:57;17.20;;;10.90;;
41568;SDS011;27283;52.504;13.358;2023-05-07T04:20:30;18.15;;;11.52;;
41568;SDS011;27283;52.504;13.358;2023-05-07T04:23:05;19.05;;;11.63;;
41568;SDS011;27283;52.504;13.358;2023-05-07T04:25:38;21.15;;;12.10;;
41568;SDS011;27283;52.504;13.358;2023-05-07T04:28:13;17.63;;;10.70;;
41568;SDS011;27283;52.504;13.358;2023-05-07T04:30:57;17.55;;;10.65;;
41568;SDS011;27283;52.504;13.358;2023-05-07T04:33:40;17.65;;;11.52;;
41568;SDS011;27283;52.504;13.358;2023-05-07T04:36:41;16.83;;;10.75;;
41568;SDS011;27283;52.504;13.358;2023-05-07T04:39:14;17.55;;;11.35;;
41568;SDS011;27283;52.504;13.358;2023-05-07T04:41:47;16.80;;;10.82;;
41568;SDS011;27283;52.504;13.358;2023-05-07T04:44:22;17.65;;;10.50;;
41568;SDS011;27283;52.504;13.358;2023-05-07T04:46:54;14.90;;;9.70;;
41568;SDS011;27283;52.504;13.358;2023-05-07T04:49:27;16.98;;;10.00;;
41568;SDS011;27283;52.504;13.358;2023-05-07T04:51:59;14.05;;;9.45;;
41568;SDS011;27283;52.504;13.358;2023-05-07T04:54:32;15.98;;;9.55;;
41568;SDS011;27283;52.504;13.358;2023-05-07T04:57:04;19.15;;;10.23;;
41568;SDS011;27283;52.504;13.358;2023-05-07T04:59:39;16.65;;;9.15;;
41568;SDS011;27283;52.504;13.358;2023-05-07T05:02:12;16.58;;;9.23;;
41568;SDS011;27283;52.504;13.358;2023-05-07T05:04:48;13.88;;;8.70;;
41568;SDS011;27283;52.504;13.358;2023-05-07T05:07:32;17.45;;;9.15;;
41568;SDS011;27283;52.504;13.358;2023-05-07T05:10:09;12.75;;;8.55;;
41568;SDS011;27283;52.504;13.358;2023-05-07T05:12:41;14.18;;;8.82;;
41568;SDS011;27283;52.504;13.358;2023-05-07T05:15:17;13.68;;;8.73;;
41568;SDS011;27283;52.504;13.358;2023-05-07T05:17:49;14.93;;;8.45;;
41568;SDS011;27283;52.504;13.358;2023-05-07T05:20:21;13.43;;;8.70;;
41568;SDS011;27283;52.504;13.358;2023-05-07T05:22:57;12.68;;;8.13;;
41568;SDS011;27283;52.504;13.358;2023-05-07T05:25:29;12.95;;;7.57;;
41568;SDS011;27283;52.504;13.358;2023-05-07T05:28:01;12.35;;;7.88;;
41568;SDS011;27283;52.504;13.358;2023-05-07T05:30:37;12.48;;;7.80;;
41568;SDS011;27283;52.504;13.358;2023-05-07T05:33:12;14.25;;;7.88;;
41568;SDS011;27283;52.504;13.358;2023-05-07T05:35:45;13.48;;;8.23;;
41568;SDS011;27283;52.504;13.358;2023-05-07T05:38:17;13.68;;;8.07;;
41568;SDS011;27283;52.504;13.358;2023-05-07T05:40:50;13.45;;;8.32;;
41568;SDS011;27283;52.504;13.358;2023-05-07T05:43:24;12.35;;;8.23;;
41568;SDS011;27283;52.504;13.358;2023-05-07T05:46:00;11.98;;;7.63;;
41568;SDS011;27283;52.504;13.358;2023-05-07T05:48:35;14.63;;;8.38;;
41568;SDS011;27283;52.504;13.358;2023-05-07T05:51:11;14.73;;;7.70;;
41568;SDS011;27283;52.504;13.358;2023-05-07T05:53:43;12.65;;;8.00;;
41568;SDS011;27283;52.504;13.358;2023-05-07T05:56:18;12.82;;;7.90;;
41568;SDS011;27283;52.504;13.358;2023-05-07T05:58:50;12.43;;;7.82;;
41568;SDS011;27283;52.504;13.358;2023-05-07T06:01:26;15.65;;;8.48;;
41568;SDS011;27283;52.504;13.358;2023-05-07T06:03:59;11.55;;;7.28;;
41568;SDS011;27283;52.504;13.358;2023-05-07T06:06:31;15.10;;;7.30;;
41568;SDS011;27283;52.504;13.358;2023-05-07T06:09:04;12.75;;;7.53;;
41568;SDS011;27283;52.504;13.358;2023-05-07T06:11:37;13.10;;;7.28;;
41568;SDS011;27283;52.504;13.358;2023-05-07T06:14:42;12.60;;;8.18;;
41568;SDS011;27283;52.504;13.358;2023-05-07T06:17:17;12.35;;;7.35;;
41568;SDS011;27283;52.504;13.358;2023-05-07T06:19:50;13.27;;;7.68;;
41568;SDS011;27283;52.504;13.358;2023-05-07T06:22:24;14.63;;;7.90;;
41568;SDS011;27283;52.504;13.358;2023-05-07T06:24:56;12.07;;;7.32;;
41568;SDS011;27283;52.504;13.358;2023-05-07T06:27:29;13.10;;;7.80;;
41568;SDS011;27283;52.504;13.358;2023-05-07T06:30:01;15.07;;;7.95;;
41568;SDS011;27283;52.504;13.358;2023-05-07T06:32:36;12.95;;;7.82;;
41568;SDS011;27283;52.504;13.358;2023-05-07T06:35:09;13.10;;;8.32;;
41568;SDS011;27283;52.504;13.358;2023-05-07T06:37:44;12.82;;;7.90;;
41568;SDS011;27283;52.504;13.358;2023-05-07T06:40:19;14.85;;;8.45;;
41568;SDS011;27283;52.504;13.358;2023-05-07T06:42:51;13.20;;;7.18;;
41568;SDS011;27283;52.504;13.358;2023-05-07T06:45:27;13.68;;;7.40;;
41568;SDS011;27283;52.504;13.358;2023-05-07T06:48:02;11.23;;;7.30;;
41568;SDS011;27283;52.504;13.358;2023-05-07T06:50:35;12.77;;;7.75;;
41568;SDS011;27283;52.504;13.358;2023-05-07T06:53:07;11.73;;;6.93;;
41568;SDS011;27283;52.504;13.358;2023-05-07T06:55:39;12.93;;;7.10;;
41568;SDS011;27283;52.504;13.358;2023-05-07T06:58:12;12.55;;;6.88;;
41568;SDS011;27283;52.504;13.358;2023-05-07T07:00:44;10.93;;;6.43;;
41568;SDS011;27283;52.504;13.358;2023-05-07T07:03:19;11.02;;;6.97;;
41568;SDS011;27283;52.504;13.358;2023-05-07T07:05:51;10.07;;;6.40;;
41568;SDS011;27283;52.504;13.358;2023-05-07T07:08:25;11.80;;;6.47;;
41568;SDS011;27283;52.504;13.358;2023-05-07T07:10:56;11.07;;;6.47;;
41568;SDS011;27283;52.504;13.358;2023-05-07T07:13:29;11.23;;;6.78;;
41568;SDS011;27283;52.504;13.358;2023-05-07T07:16:01;10.27;;;6.05;;
41568;SDS011;27283;52.504;13.358;2023-05-07T07:18:36;9.02;;;5.60;;
41568;SDS011;27283;52.504;13.358;2023-05-07T07:21:08;7.88;;;5.63;;
41568;SDS011;27283;52.504;13.358;2023-05-07T07:23:40;8.25;;;5.10;;
41568;SDS011;27283;52.504;13.358;2023-05-07T07:26:12;12.25;;;5.65;;
41568;SDS011;27283;52.504;13.358;2023-05-07T07:28:44;7.93;;;5.10;;
41568;SDS011;27283;52.504;13.358;2023-05-07T07:31:17;8.82;;;4.85;;
41568;SDS011;27283;52.504;13.358;2023-05-07T07:33:53;8.52;;;5.00;;
41568;SDS011;27283;52.504;13.358;2023-05-07T07:36:25;6.32;;;4.55;;
41568;SDS011;27283;52.504;13.358;2023-05-07T07:39:13;7.90;;;4.18;;
41568;SDS011;27283;52.504;13.358;2023-05-07T07:41:47;7.35;;;4.60;;
41568;SDS011;27283;52.504;13.358;2023-05-07T07:44:22;6.95;;;4.65;;
41568;SDS011;27283;52.504;13.358;2023-05-07T07:46:55;8.25;;;4.70;;
41568;SDS011;27283;52.504;13.358;2023-05-07T07:49:33;7.65;;;4.82;;
41568;SDS011;27283;52.504;13.358;2023-05-07T07:52:08;7.75;;;4.75;;
41568;SDS011;27283;52.504;13.358;2023-05-07T07:54:40;6.85;;;4.07;;
41568;SDS011;27283;52.504;13.358;2023-05-07T07:57:25;9.60;;;4.50;;
41568;SDS011;27283;52.504;13.358;2023-05-07T07:59:57;7.85;;;4.70;;
41568;SDS011;27283;52.504;13.358;2023-05-07T08:02:31;6.97;;;3.95;;
41568;SDS011;27283;52.504;13.358;2023-05-07T08:05:07;5.45;;;3.92;;
41568;SDS011;27283;52.504;13.358;2023-05-07T08:07:39;5.60;;;3.40;;
41568;SDS011;27283;52.504;13.358;2023-05-07T08:10:11;5.38;;;3.58;;
41568;SDS011;27283;52.504;13.358;2023-05-07T08:12:49;5.57;;;3.45;;
41568;SDS011;27283;52.504;13.358;2023-05-07T08:15:25;6.35;;;3.20;;
41568;SDS011;27283;52.504;13.358;2023-05-07T08:18:00;6.35;;;3.50;;
41568;SDS011;27283;52.504;13.358;2023-05-07T08:20:36;6.20;;;3.53;;
41568;SDS011;27283;52.504;13.358;2023-05-07T08:23:08;6.53;;;3.60;;
41568;SDS011;27283;52.504;13.358;2023-05-07T08:25:42;7.95;;;3.55;;
41568;SDS011;27283;52.504;13.358;2023-05-07T08:28:14;3.92;;;3.00;;
41568;SDS011;27283;52.504;13.358;2023-05-07T08:30:48;4.38;;;3.28;;
41568;SDS011;27283;52.504;13.358;2023-05-07T08:33:20;6.00;;;3.47;;
41568;SDS011;27283;52.504;13.358;2023-05-07T08:35:55;5.57;;;3.47;;
41568;SDS011;27283;52.504;13.358;2023-05-07T08:38:37;4.70;;;3.10;;
41568;SDS011;27283;52.504;13.358;2023-05-07T08:41:21;5.80;;;3.30;;
41568;SDS011;27283;52.504;13.358;2023-05-07T08:43:54;6.97;;;3.60;;
41568;SDS011;27283;52.504;13.358;2023-05-07T08:46:31;5.45;;;3.42;;
41568;SDS011;27283;52.504;13.358;2023-05-07T08:49:03;5.18;;;3.47;;
41568;SDS011;27283;52.504;13.358;2023-05-07T08:51:39;7.35;;;3.17;;
41568;SDS011;27283;52.504;13.358;2023-05-07T08:54:17;5.93;;;3.25;;
41568;SDS011;27283;52.504;13.358;2023-05-07T08:56:52;4.78;;;3.03;;
41568;SDS011;27283;52.504;13.358;2023-05-07T08:59:26;4.53;;;3.00;;
41568;SDS011;27283;52.504;13.358;2023-05-07T09:01:58;6.15;;;3.38;;
41568;SDS011;27283;52.504;13.358;2023-05-07T09:04:30;5.57;;;3.42;;
41568;SDS011;27283;52.504;13.358;2023-05-07T09:07:08;4.53;;;3.28;;
41568;SDS011;27283;52.504;13.358;2023-05-07T09:09:39;6.18;;;3.20;;
41568;SDS011;27283;52.504;13.358;2023-05-07T09:12:12;6.57;;;3.25;;
41568;SDS011;27283;52.504;13.358;2023-05-07T09:14:45;4.88;;;3.33;;
41568;SDS011;27283;52.504;13.358;2023-05-07T09:17:17;7.78;;;3.60;;
41568;SDS011;27283;52.504;13.358;2023-05-07T09:19:50;6.00;;;3.30;;
41568;SDS011;27283;52.504;13.358;2023-05-07T09:23:03;7.18;;;3.47;;
41568;SDS011;27283;52.504;13.358;2023-05-07T09:25:42;8.02;;;3.58;;
41568;SDS011;27283;52.504;13.358;2023-05-07T09:28:16;6.88;;;3.38;;
41568;SDS011;27283;52.504;13.358;2023-05-07T09:30:50;5.22;;;3.13;;
41568;SDS011;27283;52.504;13.358;2023-05-07T09:33:31;6.63;;;3.45;;
41568;SDS011;27283;52.504;13.358;2023-05-07T09:36:10;6.85;;;3.30;;
41568;SDS011;27283;52.504;13.358;2023-05-07T09:38:46;4.97;;;3.20;;
41568;SDS011;27283;52.504;13.358;2023-05-07T09:41:19;5.45;;;3.70;;
41568;SDS011;27283;52.504;13.358;2023-05-07T09:43:53;7.15;;;3.30;;
41568;SDS011;27283;52.504;13.358;2023-05-07T09:46:27;4.90;;;3.20;;
41568;SDS011;27283;52.504;13.358;2023-05-07T09:49:02;4.85;;;3.50;;
41568;SDS011;27283;52.504;13.358;2023-05-07T09:51:47;6.32;;;3.30;;
41568;SDS011;27283;52.504;13.358;2023-05-07T09:54:24;5.57;;;3.50;;
41568;SDS011;27283;52.504;13.358;2023-05-07T09:57:03;6.13;;;3.38;;
41568;SDS011;27283;52.504;13.358;2023-05-07T09:59:37;4.20;;;3.05;;
41568;SDS011;27283;52.504;13.358;2023-05-07T10:02:11;4.60;;;2.90;;
41568;SDS011;27283;52.504;13.358;2023-05-07T10:04:46;5.85;;;3.38;;
41568;SDS011;27283;52.504;13.358;2023-05-07T10:07:21;5.45;;;3.22;;
41568;SDS011;27283;52.504;13.358;2023-05-07T10:09:57;5.68;;;2.83;;
41568;SDS011;27283;52.504;13.358;2023-05-07T10:12:31;7.18;;;2.95;;
41568;SDS011;27283;52.504;13.358;2023-05-07T10:15:08;4.60;;;2.70;;
41568;SDS011;27283;52.504;13.358;2023-05-07T10:17:44;5.38;;;2.80;;
41568;SDS011;27283;52.504;13.358;2023-05-07T10:20:17;4.72;;;2.63;;
41568;SDS011;27283;52.504;13.358;2023-05-07T10:22:49;3.92;;;2.47;;
41568;SDS011;27283;52.504;13.358;2023-05-07T10:25:28;3.30;;;2.17;;
41568;SDS011;27283;52.504;13.358;2023-05-07T10:28:04;4.03;;;2.53;;
41568;SDS011;27283;52.504;13.358;2023-05-07T10:30:44;3.08;;;2.20;;
41568;SDS011;27283;52.504;13.358;2023-05-07T10:33:29;3.22;;;2.20;;
41568;SDS011;27283;52.504;13.358;2023-05-07T10:36:05;3.17;;;2.10;;
41568;SDS011;27283;52.504;13.358;2023-05-07T10:38:38;4.78;;;2.67;;
41568;SDS011;27283;52.504;13.358;2023-05-07T10:41:14;4.00;;;2.35;;
41568;SDS011;27283;52.504;13.358;2023-05-07T10:43:54;2.83;;;2.08;;
41568;SDS011;27283;52.504;13.358;2023-05-07T10:46:30;3.03;;;1.88;;
41568;SDS011;27283;52.504;13.358;2023-05-07T10:49:06;2.70;;;1.90;;
41568;SDS011;27283;52.504;13.358;2023-05-07T10:51:40;3.42;;;1.90;;
41568;SDS011;27283;52.504;13.358;2023-05-07T10:54:21;3.85;;;2.03;;
41568;SDS011;27283;52.504;13.358;2023-05-07T10:56:58;3.00;;;2.00;;
41568;SDS011;27283;52.504;13.358;2023-05-07T11:03:15;4.22;;;2.10;;
41568;SDS011;27283;52.504;13.358;2023-05-07T11:05:47;3.45;;;1.80;;
41568;SDS011;27283;52.504;13.358;2023-05-07T11:08:54;3.65;;;2.00;;
41568;SDS011;27283;52.504;13.358;2023-05-07T11:17:16;3.25;;;2.03;;
41568;SDS011;27283;52.504;13.358;2023-05-07T11:19:49;3.30;;;2.20;;
41568;SDS011;27283;52.504;13.358;2023-05-07T11:25:17;3.60;;;2.13;;
41568;SDS011;27283;52.504;13.358;2023-05-07T11:27:50;4.28;;;2.15;;
41568;SDS011;27283;52.504;13.358;2023-05-07T11:30:26;3.50;;;1.95;;
41568;SDS011;27283;52.504;13.358;2023-05-07T11:33:02;3.45;;;2.10;;
41568;SDS011;27283;52.504;13.358;2023-05-07T11:35:36;3.15;;;1.88;;
41568;SDS011;27283;52.504;13.358;2023-05-07T11:38:27;3.60;;;2.10;;
41568;SDS011;27283;52.504;13.358;2023-05-07T11:41:01;2.95;;;2.00;;
41568;SDS011;27283;52.504;13.358;2023-05-07T11:43:34;4.47;;;2.17;;
41568;SDS011;27283;52.504;13.358;2023-05-07T11:46:09;4.07;;;2.03;;
41568;SDS011;27283;52.504;13.358;2023-05-07T11:48:43;4.18;;;2.40;;
41568;SDS011;27283;52.504;13.358;2023-05-07T11:51:19;3.00;;;2.22;;
41568;SDS011;27283;52.504;13.358;2023-05-07T11:53:55;4.13;;;2.42;;
41568;SDS011;27283;52.504;13.358;2023-05-07T11:56:33;4.85;;;2.20;;
41568;SDS011;27283;52.504;13.358;2023-05-07T11:59:06;3.17;;;2.13;;
41568;SDS011;27283;52.504;13.358;2023-05-07T12:01:39;4.90;;;2.22;;
41568;SDS011;27283;52.504;13.358;2023-05-07T12:04:13;3.17;;;2.10;;
41568;SDS011;27283;52.504;13.358;2023-05-07T12:06:46;6.22;;;2.63;;
41568;SDS011;27283;52.504;13.358;2023-05-07T12:09:21;5.72;;;2.17;;
41568;SDS011;27283;52.504;13.358;2023-05-07T12:12:06;4.32;;;2.33;;
41568;SDS011;27283;52.504;13.358;2023-05-07T12:14:39;3.95;;;2.15;;
41568;SDS011;27283;52.504;13.358;2023-05-07T12:17:12;3.25;;;1.98;;
41568;SDS011;27283;52.504;13.358;2023-05-07T12:19:46;4.75;;;2.03;;
41568;SDS011;27283;52.504;13.358;2023-05-07T12:22:21;3.22;;;2.05;;
41568;SDS011;27283;52.504;13.358;2023-05-07T12:24:59;3.72;;;2.08;;
41568;SDS011;27283;52.504;13.358;2023-05-07T12:27:31;3.63;;;1.90;;
41568;SDS011;27283;52.504;13.358;2023-05-07T12:30:04;2.65;;;1.80;;
41568;SDS011;27283;52.504;13.358;2023-05-07T12:32:37;3.25;;;2.00;;
41568;SDS011;27283;52.504;13.358;2023-05-07T12:35:09;4.40;;;2.00;;
41568;SDS011;27283;52.504;13.358;2023-05-07T12:37:42;4.97;;;2.95;;
41568;SDS011;27283;52.504;13.358;2023-05-07T12:40:19;4.05;;;2.30;;
41568;SDS011;27283;52.504;13.358;2023-05-07T12:42:52;4.72;;;2.10;;
41568;SDS011;27283;52.504;13.358;2023-05-07T12:45:28;4.43;;;2.10;;
41568;SDS011;27283;52.504;13.358;2023-05-07T12:48:01;3.80;;;1.90;;
41568;SDS011;27283;52.504;13.358;2023-05-07T12:50:33;4.85;;;2.03;;
41568;SDS011;27283;52.504;13.358;2023-05-07T12:53:06;3.20;;;1.90;;
41568;SDS011;27283;52.504;13.358;2023-05-07T12:55:45;3.97;;;2.00;;
41568;SDS011;27283;52.504;13.358;2023-05-07T12:58:19;3.58;;;1.88;;
41568;SDS011;27283;52.504;13.358;2023-05-07T13:00:55;4.20;;;2.00;;
41568;SDS011;27283;52.504;13.358;2023-05-07T13:03:33;2.53;;;1.80;;
41568;SDS011;27283;52.504;13.358;2023-05-07T13:06:07;2.85;;;1.95;;
41568;SDS011;27283;52.504;13.358;2023-05-07T13:08:41;4.97;;;2.00;;
41568;SDS011;27283;52.504;13.358;2023-05-07T13:11:19;2.65;;;1.70;;
41568;SDS011;27283;52.504;13.358;2023-05-07T13:13:51;3.70;;;1.88;;
41568;SDS011;27283;52.504;13.358;2023-05-07T13:16:24;2.90;;;1.38;;
41568;SDS011;27283;52.504;13.358;2023-05-07T13:18:56;2.00;;;1.50;;
41568;SDS011;27283;52.504;13.358;2023-05-07T13:21:28;2.88;;;1.50;;
41568;SDS011;27283;52.504;13.358;2023-05-07T13:24:01;4.57;;;2.20;;
41568;SDS011;27283;52.504;13.358;2023-05-07T13:26:36;3.63;;;1.83;;
41568;SDS011;27283;52.504;13.358;2023-05-07T13:29:08;2.70;;;1.55;;
41568;SDS011;27283;52.504;13.358;2023-05-07T13:31:40;1.80;;;1.50;;
41568;SDS011;27283;52.504;13.358;2023-05-07T13:34:15;2.58;;;1.48;;
41568;SDS011;27283;52.504;13.358;2023-05-07T13:36:47;4.20;;;1.70;;
41568;SDS011;27283;52.504;13.358;2023-05-07T13:39:19;4.43;;;1.80;;
41568;SDS011;27283;52.504;13.358;2023-05-07T13:41:57;4.75;;;1.88;;
41568;SDS011;27283;52.504;13.358;2023-05-07T13:44:32;3.45;;;1.90;;
41568;SDS011;27283;52.504;13.358;2023-05-07T13:47:04;4.15;;;1.80;;
41568;SDS011;27283;52.504;13.358;2023-05-07T13:49:36;2.55;;;1.63;;
41568;SDS011;27283;52.504;13.358;2023-05-07T13:52:09;2.58;;;1.73;;
41568;SDS011;27283;52.504;13.358;2023-05-07T13:54:41;2.67;;;1.73;;
41568;SDS011;27283;52.504;13.358;2023-05-07T13:57:16;4.15;;;1.77;;
41568;SDS011;27283;52.504;13.358;2023-05-07T14:00:00;4.75;;;1.65;;
41568;SDS011;27283;52.504;13.358;2023-05-07T14:02:33;2.30;;;1.50;;
41568;SDS011;27283;52.504;13.358;2023-05-07T14:05:06;3.47;;;1.50;;
41568;SDS011;27283;52.504;13.358;2023-05-07T14:07:39;3.47;;;1.77;;
41568;SDS011;27283;52.504;13.358;2023-05-07T14:10:13;3.35;;;1.60;;
41568;SDS011;27283;52.504;13.358;2023-05-07T14:12:48;3.67;;;1.80;;
41568;SDS011;27283;52.504;13.358;2023-05-07T14:15:21;1.80;;;1.50;;
41568;SDS011;27283;52.504;13.358;2023-05-07T14:17:53;4.03;;;1.70;;
41568;SDS011;27283;52.504;13.358;2023-05-07T14:20:28;4.40;;;1.80;;
41568;SDS011;27283;52.504;13.358;2023-05-07T14:23:00;3.92;;;1.50;;
41568;SDS011;27283;52.504;13.358;2023-05-07T14:25:33;4.65;;;2.08;;
41568;SDS011;27283;52.504;13.358;2023-05-07T14:28:08;5.82;;;2.22;;
41568;SDS011;27283;52.504;13.358;2023-05-07T14:30:43;3.25;;;1.50;;
41568;SDS011;27283;52.504;13.358;2023-05-07T14:33:15;3.42;;;1.75;;
41568;SDS011;27283;52.504;13.358;2023-05-07T14:35:49;7.28;;;2.13;;
41568;SDS011;27283;52.504;13.358;2023-05-07T14:38:21;3.13;;;2.08;;
41568;SDS011;27283;52.504;13.358;2023-05-07T14:40:54;3.83;;;1.88;;
41568;SDS011;27283;52.504;13.358;2023-05-07T14:43:29;2.58;;;1.95;;
41568;SDS011;27283;52.504;13.358;2023-05-07T14:46:04;6.68;;;2.45;;
41568;SDS011;27283;52.504;13.358;2023-05-07T14:48:37;3.83;;;1.83;;
41568;SDS011;27283;52.504;13.358;2023-05-07T14:51:11;3.38;;;1.90;;
41568;SDS011;27283;52.504;13.358;2023-05-07T14:53:44;2.13;;;1.73;;
41568;SDS011;27283;52.504;13.358;2023-05-07T14:56:17;2.95;;;1.80;;
41568;SDS011;27283;52.504;13.358;2023-05-07T14:58:52;2.20;;;1.42;;
41568;SDS011;27283;52.504;13.358;2023-05-07T15:01:25;6.15;;;2.00;;
41568;SDS011;27283;52.504;13.358;2023-05-07T15:04:00;4.60;;;1.90;;
41568;SDS011;27283;52.504;13.358;2023-05-07T15:06:33;5.65;;;1.98;;
41568;SDS011;27283;52.504;13.358;2023-05-07T15:09:05;4.35;;;2.45;;
41568;SDS011;27283;52.504;13.358;2023-05-07T15:11:41;4.55;;;2.33;;
41568;SDS011;27283;52.504;13.358;2023-05-07T15:14:16;4.90;;;2.78;;
41568;SDS011;27283;52.504;13.358;2023-05-07T15:16:50;3.42;;;1.70;;
41568;SDS011;27283;52.504;13.358;2023-05-07T15:19:22;3.58;;;1.73;;